SEQM

Mariscal Sucre International Airport

Quito, Ecuador
SEQM 221640Z 2218/2318 36012KT 9999 SCT040 FM230000 03004KT 9999 FEW010 BKN020 FM230700 VRB03KT 6000 BCFG SCT005 BKN016 FM231200 VRB03KT 9999 SCT033 TX26/2219Z TN11/2311Z
Issued Valid From Valid To
Jan-22 @ 16:40 UTC
(an hour ago)
Jan-22 @ 18:00 UTC
(in 18 minutes)
Jan-23 @ 18:00 UTC
(in 24 hours)
Jan-22 @ 18:00 to Jan-23 @ 00:00
SEQM 221640Z 2218/2318 36012KT 9999 SCT040
Wind Visibility Clouds
360° at 12 knots 10,000+ meters
  • Scattered at 4,000' AGL
From Jan-23 @ 00:00 to Jan-23 @ 07:00
FM230000 03004KT 9999 FEW010 BKN020
Wind Visibility Clouds
30° at 4 knots 10,000+ meters
  • Few at 1,000' AGL
  • Broken at 2,000' AGL
From Jan-23 @ 07:00 to Jan-23 @ 12:00
FM230700 VRB03KT 6000 BCFG SCT005 BKN016
Wind Visibility Clouds Conditions
Variable at 3 knots 6,003 meters
  • Scattered at 500' AGL
  • Broken at 1,600' AGL
  • Patches of
  • Fog
From Jan-23 @ 12:00 to Jan-23 @ 18:00
FM231200 VRB03KT 9999 SCT033 TX26/2219Z TN11/2311Z
Wind Visibility Clouds
Variable at 3 knots 10,000+ meters
  • Scattered at 3,300' AGL
SEQM 221640Z 2218/2318 36012KT 9999 SCT040 FM230000 03004KT 9999 FEW010 BKN020 FM230700 VRB03KT 6000 BCFG SCT005 BKN016 FM231200 VRB03KT 9999 SCT033 TX26/2219Z TN11/2311Z
Issued Jan-22 @ 16:40 UTC
(an hour ago)
Valid From Jan-22 @ 18:00 UTC
(in 18 minutes)
Valid To Jan-23 @ 18:00 UTC
(in 24 hours)
Jan-22 @ 18:00 - Jan-23 @ 00:00
Wind Visibility
360° at 12 knots 10,000+ meters
Clouds
  • Scattered at 4,000' AGL
From Jan-23 @ 00:00 - Jan-23 @ 07:00
Wind Visibility
30° at 4 knots 10,000+ meters
Clouds
  • Few at 1,000' AGL
  • Broken at 2,000' AGL
From Jan-23 @ 07:00 - Jan-23 @ 12:00
Wind Visibility
Variable at 3 knots 6,003 meters
Clouds
  • Scattered at 500' AGL
  • Broken at 1,600' AGL
Conditions
  • Patches of
  • Fog
From Jan-23 @ 12:00 - Jan-23 @ 18:00
Wind Visibility
Variable at 3 knots 10,000+ meters
Clouds
  • Scattered at 3,300' AGL